YXIW weather

Inglewood Hospital Helipad
Inglewood, Queensland, Australia

Public forecast

Using degrees Celsius for public forecast. Weather courtesy of forecast.io.

Closest aviation weather report (METAR) to Inglewood Hospital Helipad

Closest report is Oakey Airport, 70.2 nm (130.1 km) NNE. Retrieved 2019/10/21 01:00 UTC (19 minutes ago):

YBOK 210100Z 07010KT 9999 SCT048 23/08 Q1024 NOSIG

Closest aviation forecast (TAF) to Inglewood Hospital Helipad

Closest forecast is RAAF Base Amberley, 99.2 nm (183.6 km) ENE. Retrieved 2019-10-21 00:00 UTC (1 hour ago):

TAF YAMB 202209Z 2100/2118 13013KT CAVOK FM211000 VRB05KT 9999 SCT040 FM211400 21005KT 9999 SCT020